Time;durP1;ratioP1;P1;durP2;ratioP2;P2;SDS_P1;SDS_P2;PMS_P1;PMS_P2;Temp;Humidity;BMP_temperature;BMP_pressure;BME280_temperature;BME280_humidity;BME280_pressure;Samples;Min_cycle;Max_cycle;Signal;HPM_P1;HPM_P2
2023/05/21 00:02:16;;;;;;;19.15;13.93;;;16.10;99.90;;;;;;4976109;28;20037;-52
2023/05/21 00:04:45;;;;;;;16.90;12.45;;;16.10;99.90;;;;;;4991187;28;20391;-52
2023/05/21 00:07:11;;;;;;;21.38;13.93;;;16.10;99.90;;;;;;4977219;28;20027;-54
2023/05/21 00:09:37;;;;;;;16.30;13.20;;;16.10;99.90;;;;;;4976179;28;20022;-57
2023/05/21 00:12:07;;;;;;;20.70;13.57;;;16.10;99.90;;;;;;4976624;28;20034;-54
2023/05/21 00:14:34;;;;;;;16.65;12.85;;;16.10;99.90;;;;;;4974740;28;20023;-55
2023/05/21 00:16:59;;;;;;;17.20;13.02;;;16.10;99.90;;;;;;4976103;28;20037;-53
2023/05/21 00:19:25;;;;;;;19.88;13.52;;;16.10;99.90;;;;;;4975934;28;20098;-55
2023/05/21 00:21:51;;;;;;;17.95;13.35;;;16.10;99.90;;;;;;4976377;28;20041;-55
2023/05/21 00:24:17;;;;;;;19.23;13.70;;;16.10;99.90;;;;;;4976804;28;20030;-54
2023/05/21 00:26:42;;;;;;;15.13;12.90;;;16.10;99.90;;;;;;4993820;28;20471;-49
2023/05/21 00:29:08;;;;;;;19.20;13.95;;;16.00;99.90;;;;;;4976623;28;20049;-52
2023/05/21 00:31:34;;;;;;;16.40;13.55;;;16.00;99.90;;;;;;4974879;28;20027;-52
2023/05/21 00:34:00;;;;;;;25.98;14.15;;;16.00;99.90;;;;;;4976132;28;20047;-55
2023/05/21 00:36:26;;;;;;;16.23;13.05;;;16.00;99.90;;;;;;4978244;28;20093;-53
2023/05/21 00:38:51;;;;;;;15.65;12.52;;;16.00;99.90;;;;;;4975872;28;20029;-49
2023/05/21 00:41:17;;;;;;;17.20;13.45;;;16.00;99.90;;;;;;4975917;28;20038;-53
2023/05/21 00:43:43;;;;;;;16.92;13.10;;;16.00;99.90;;;;;;4978217;28;20077;-49
2023/05/21 00:46:12;;;;;;;16.17;12.82;;;16.00;99.90;;;;;;4975396;28;20126;-55
2023/05/21 00:48:38;;;;;;;18.15;13.35;;;16.00;99.90;;;;;;4978009;28;20168;-50
2023/05/21 00:51:04;;;;;;;19.75;14.38;;;16.00;99.90;;;;;;4975838;28;20027;-50
2023/05/21 00:53:33;;;;;;;18.77;13.70;;;15.80;99.90;;;;;;4990292;28;20042;-48
2023/05/21 00:55:59;;;;;;;18.48;12.63;;;15.90;99.90;;;;;;4974919;28;20026;-51
2023/05/21 00:58:25;;;;;;;18.92;13.65;;;15.90;99.90;;;;;;4974801;28;20026;-49
2023/05/21 01:00:54;;;;;;;19.60;12.88;;;15.90;99.90;;;;;;4974607;28;20502;-51
2023/05/21 01:03:21;;;;;;;15.57;12.52;;;15.80;99.90;;;;;;4973572;28;20483;-47
2023/05/21 01:05:48;;;;;;;14.13;11.90;;;15.80;99.90;;;;;;4974891;28;20038;-48
2023/05/21 01:08:13;;;;;;;16.20;13.10;;;15.90;99.90;;;;;;4974576;28;20038;-52
2023/05/21 01:10:39;;;;;;;22.73;13.73;;;15.90;99.90;;;;;;4974727;28;20026;-53
2023/05/21 01:13:05;;;;;;;15.38;12.38;;;15.90;99.90;;;;;;4974384;28;20029;-50
2023/05/21 01:15:31;;;;;;;18.27;13.32;;;15.90;99.90;;;;;;4974751;28;20531;-49
2023/05/21 01:17:57;;;;;;;17.73;13.80;;;15.90;99.90;;;;;;4974510;28;20115;-50
2023/05/21 01:20:23;;;;;;;20.50;13.18;;;15.90;99.90;;;;;;4974475;28;20042;-49
2023/05/21 01:22:52;;;;;;;16.55;12.73;;;15.90;99.90;;;;;;4988856;28;20019;-49
2023/05/21 01:25:17;;;;;;;17.48;13.50;;;15.90;99.90;;;;;;4973660;28;20023;-52
2023/05/21 01:27:43;;;;;;;17.83;13.00;;;15.80;99.90;;;;;;4974842;28;20125;-51
2023/05/21 01:30:09;;;;;;;19.98;13.20;;;15.80;99.90;;;;;;4974095;28;20339;-50
2023/05/21 01:32:55;;;;;;;17.92;13.30;;;15.90;99.90;;;;;;4973986;28;20041;-50
2023/05/21 01:35:26;;;;;;;15.82;13.32;;;15.80;99.90;;;;;;4974230;28;20045;-53
2023/05/21 01:37:58;;;;;;;18.20;13.30;;;15.80;99.90;;;;;;4974041;28;20058;-48
2023/05/21 01:40:52;;;;;;;18.85;13.35;;;15.80;99.90;;;;;;4974289;28;20677;-48
2023/05/21 01:43:18;;;;;;;19.50;13.18;;;15.90;99.90;;;;;;4989438;28;20023;-51
2023/05/21 01:45:45;;;;;;;17.35;13.45;;;15.90;99.90;;;;;;4973031;28;20093;-55
2023/05/21 01:48:12;;;;;;;17.65;14.25;;;15.90;99.90;;;;;;4974424;28;20027;-49
2023/05/21 01:50:40;;;;;;;17.90;13.15;;;15.90;99.90;;;;;;4974071;28;20057;-48
2023/05/21 01:53:05;;;;;;;16.52;13.55;;;15.90;99.90;;;;;;4973691;28;20045;-47
2023/05/21 01:55:32;;;;;;;21.30;13.70;;;15.90;99.90;;;;;;4939517;28;1026295;-48
2023/05/21 01:57:58;;;;;;;16.13;12.50;;;15.90;99.90;;;;;;4975134;28;20023;-48
2023/05/21 02:00:27;;;;;;;16.75;13.18;;;15.90;99.90;;;;;;4989554;28;20023;-50
2023/05/21 02:02:53;;;;;;;16.17;12.80;;;15.80;99.90;;;;;;4989572;28;20483;-51
2023/05/21 02:05:18;;;;;;;16.05;13.13;;;15.80;99.90;;;;;;4974245;28;20031;-53
2023/05/21 02:07:45;;;;;;;16.33;13.02;;;15.80;99.90;;;;;;4989363;28;20030;-52
2023/05/21 02:10:11;;;;;;;17.73;13.32;;;15.80;99.90;;;;;;4973703;28;20073;-50
2023/05/21 02:12:37;;;;;;;16.90;13.68;;;15.80;99.90;;;;;;4974050;28;20035;-48
2023/05/21 02:15:03;;;;;;;17.80;12.82;;;15.70;99.90;;;;;;4974221;28;20038;-48
2023/05/21 02:17:32;;;;;;;17.30;13.40;;;15.70;99.90;;;;;;4974032;28;20036;-51
2023/05/21 02:20:09;;;;;;;16.83;12.90;;;15.70;99.90;;;;;;4973744;28;20394;-51
2023/05/21 02:22:43;;;;;;;17.85;13.60;;;15.70;99.90;;;;;;4973523;28;20110;-48
2023/05/21 02:25:10;;;;;;;18.38;13.07;;;15.70;99.90;;;;;;4974242;28;20031;-51
2023/05/21 02:27:36;;;;;;;18.60;13.43;;;15.70;99.90;;;;;;4974350;28;20057;-49
2023/05/21 02:30:08;;;;;;;16.85;13.45;;;15.70;99.90;;;;;;4973930;28;20042;-48
2023/05/21 02:32:34;;;;;;;18.50;12.95;;;15.60;99.90;;;;;;4973794;28;20038;-52
2023/05/21 02:35:02;;;;;;;17.88;13.18;;;15.60;99.90;;;;;;4978183;28;20057;-49
2023/05/21 02:37:27;;;;;;;17.52;13.85;;;15.70;99.90;;;;;;4978106;28;20042;-49
2023/05/21 02:39:53;;;;;;;20.38;13.70;;;15.70;99.90;;;;;;4977489;28;20027;-49
2023/05/21 02:42:20;;;;;;;18.92;14.13;;;15.70;99.90;;;;;;4977420;28;20110;-52
2023/05/21 02:44:46;;;;;;;19.73;13.40;;;15.70;99.90;;;;;;4977771;28;20565;-50
2023/05/21 02:47:11;;;;;;;17.48;13.80;;;15.70;99.90;;;;;;4977027;28;20039;-52
2023/05/21 02:49:37;;;;;;;16.98;12.77;;;15.70;99.90;;;;;;4977811;28;20027;-54
2023/05/21 02:52:03;;;;;;;22.60;12.75;;;15.70;99.90;;;;;;4977486;28;20038;-49
2023/05/21 02:54:28;;;;;;;21.42;14.32;;;15.70;99.90;;;;;;4977380;28;20086;-48
2023/05/21 02:56:54;;;;;;;15.70;13.27;;;15.70;99.90;;;;;;4976737;28;20027;-52
2023/05/21 02:59:20;;;;;;;17.65;12.63;;;16.10;99.90;;;;;;4977583;28;20042;-51
2023/05/21 03:01:45;;;;;;;20.13;13.95;;;15.70;99.90;;;;;;4976248;28;20031;-53
2023/05/21 03:04:11;;;;;;;20.40;13.65;;;15.70;99.90;;;;;;4977656;28;20038;-50
2023/05/21 03:06:36;;;;;;;25.92;14.52;;;15.70;99.90;;;;;;4976568;28;20483;-48
2023/05/21 03:09:04;;;;;;;17.83;14.05;;;15.70;99.90;;;;;;4977263;28;20105;-51
2023/05/21 03:11:30;;;;;;;17.42;14.13;;;15.70;99.90;;;;;;4978006;28;20110;-51
2023/05/21 03:13:55;;;;;;;13.23;11.73;;;15.70;99.90;;;;;;4977555;28;20114;-49
2023/05/21 03:16:21;;;;;;;18.35;13.70;;;15.70;99.90;;;;;;4977482;28;20062;-52
2023/05/21 03:18:46;;;;;;;17.15;13.23;;;15.70;99.90;;;;;;4977358;28;20023;-53
2023/05/21 03:21:14;;;;;;;16.85;12.50;;;15.70;99.90;;;;;;4976465;28;20031;-53
2023/05/21 03:23:42;;;;;;;15.38;13.15;;;15.80;99.90;;;;;;4975837;28;20118;-48
2023/05/21 03:26:07;;;;;;;18.38;13.45;;;15.70;99.90;;;;;;4977495;28;20056;-48
2023/05/21 03:28:34;;;;;;;17.70;13.43;;;15.70;99.90;;;;;;4975679;28;20027;-53
2023/05/21 03:31:00;;;;;;;16.58;12.82;;;15.70;99.90;;;;;;4977118;28;20027;-49
2023/05/21 03:33:25;;;;;;;16.80;13.38;;;15.80;99.90;;;;;;4977138;28;20023;-50
2023/05/21 03:35:51;;;;;;;17.75;13.35;;;15.90;99.90;;;;;;4977429;28;20042;-52
2023/05/21 03:38:16;;;;;;;16.40;13.57;;;15.70;99.90;;;;;;4975731;28;20027;-50
2023/05/21 03:40:42;;;;;;;13.55;12.13;;;15.70;99.90;;;;;;4977001;28;20060;-49
2023/05/21 03:43:07;;;;;;;18.67;13.98;;;15.70;99.90;;;;;;4975557;28;20479;-52
2023/05/21 03:45:33;;;;;;;20.17;13.95;;;15.70;99.90;;;;;;4976926;28;20027;-51
2023/05/21 03:48:00;;;;;;;18.50;14.05;;;15.70;99.90;;;;;;4976584;28;20407;-54
2023/05/21 03:50:26;;;;;;;18.15;13.38;;;15.70;99.90;;;;;;4976730;28;20023;-49
2023/05/21 03:52:51;;;;;;;18.08;12.43;;;15.70;99.90;;;;;;4977021;28;20057;-51
2023/05/21 03:55:17;;;;;;;20.05;13.57;;;15.70;99.90;;;;;;4976960;28;20039;-48
2023/05/21 03:57:42;;;;;;;24.67;12.70;;;15.70;99.90;;;;;;4975746;28;20090;-49
2023/05/21 04:00:08;;;;;;;21.30;14.82;;;15.70;99.90;;;;;;4976788;28;20030;-54
2023/05/21 04:02:34;;;;;;;15.80;12.55;;;15.70;99.90;;;;;;4976512;28;20030;-53
2023/05/21 04:05:00;;;;;;;18.77;13.10;;;15.70;99.90;;;;;;4976648;28;20027;-51
2023/05/21 04:07:26;;;;;;;17.60;13.38;;;15.70;99.90;;;;;;4976914;28;20027;-48
2023/05/21 04:09:52;;;;;;;20.63;13.73;;;15.80;99.90;;;;;;4976686;28;20402;-50
2023/05/21 04:12:18;;;;;;;30.33;13.82;;;15.80;99.90;;;;;;4991707;28;20033;-49
2023/05/21 04:14:45;;;;;;;17.23;12.82;;;15.80;99.90;;;;;;4976875;28;20510;-53
2023/05/21 04:17:11;;;;;;;19.08;13.57;;;15.80;99.90;;;;;;4976524;28;20031;-52
2023/05/21 04:19:37;;;;;;;18.02;13.77;;;15.80;99.90;;;;;;4976806;28;20018;-49
2023/05/21 04:22:03;;;;;;;15.90;12.85;;;15.80;99.90;;;;;;4976856;28;20029;-50
2023/05/21 04:24:29;;;;;;;17.40;13.82;;;15.80;99.90;;;;;;4977125;28;20483;-52
2023/05/21 04:26:56;;;;;;;15.75;12.90;;;15.80;99.90;;;;;;4976766;28;20037;-49
2023/05/21 04:29:21;;;;;;;17.23;12.80;;;15.80;99.90;;;;;;4976023;28;20407;-51
2023/05/21 04:31:48;;;;;;;16.15;12.77;;;15.80;99.90;;;;;;4976072;28;20034;-47
2023/05/21 04:34:16;;;;;;;19.92;13.77;;;15.90;99.90;;;;;;4976296;28;20106;-50
2023/05/21 04:36:42;;;;;;;16.80;13.20;;;15.90;99.90;;;;;;4976295;28;20015;-50
2023/05/21 04:39:08;;;;;;;15.82;12.90;;;16.00;99.90;;;;;;4975763;28;20086;-51
2023/05/21 04:41:33;;;;;;;19.30;13.20;;;16.00;99.90;;;;;;4975905;28;20035;-55
2023/05/21 04:43:59;;;;;;;19.73;13.57;;;16.00;99.90;;;;;;4975607;28;20383;-50
2023/05/21 04:46:25;;;;;;;18.40;13.27;;;16.00;99.90;;;;;;4975787;28;20037;-53
2023/05/21 04:48:53;;;;;;;20.10;13.23;;;16.00;99.90;;;;;;4975899;28;20031;-48
2023/05/21 04:51:21;;;;;;;18.20;12.90;;;16.00;99.90;;;;;;4976064;28;20054;-54
2023/05/21 04:53:48;;;;;;;18.95;13.80;;;16.00;99.90;;;;;;4974117;28;20031;-49
2023/05/21 04:56:16;;;;;;;15.35;12.60;;;16.10;99.90;;;;;;4975632;28;20023;-53
2023/05/21 04:58:41;;;;;;;16.70;13.40;;;16.10;99.90;;;;;;4975755;28;20027;-48
2023/05/21 05:01:07;;;;;;;20.25;13.05;;;16.10;99.90;;;;;;4975798;28;20042;-52
2023/05/21 05:03:33;;;;;;;15.82;12.57;;;16.10;99.90;;;;;;4976298;28;20483;-49
2023/05/21 05:05:59;;;;;;;15.75;12.40;;;16.20;99.90;;;;;;4976414;28;20018;-50
2023/05/21 05:08:24;;;;;;;14.93;12.05;;;16.20;99.90;;;;;;4975985;28;20085;-54
2023/05/21 05:10:50;;;;;;;18.83;13.13;;;16.20;99.90;;;;;;4976917;28;20082;-54
2023/05/21 05:13:15;;;;;;;17.45;12.68;;;16.20;99.90;;;;;;4974903;28;20023;-49
2023/05/21 05:15:41;;;;;;;18.65;13.68;;;16.30;99.90;;;;;;4976171;28;20528;-48
2023/05/21 05:18:10;;;;;;;19.67;14.45;;;16.30;99.90;;;;;;4976164;28;20026;-52
2023/05/21 05:20:36;;;;;;;17.55;13.75;;;16.30;99.90;;;;;;4975763;28;20065;-50
2023/05/21 05:23:01;;;;;;;15.82;12.63;;;16.30;99.90;;;;;;4974835;28;20117;-49
2023/05/21 05:25:27;;;;;;;22.63;13.13;;;16.30;99.90;;;;;;4975111;28;20402;-50
2023/05/21 05:27:52;;;;;;;20.50;13.05;;;16.30;99.90;;;;;;4975646;28;20037;-51
2023/05/21 05:30:19;;;;;;;15.93;12.40;;;16.40;99.90;;;;;;4974021;28;20027;-53
2023/05/21 05:32:45;;;;;;;14.50;12.30;;;16.30;99.90;;;;;;4990925;28;20023;-54
2023/05/21 05:35:11;;;;;;;16.95;13.45;;;16.40;99.90;;;;;;4990779;28;20058;-51
2023/05/21 05:37:37;;;;;;;15.40;12.50;;;16.40;99.90;;;;;;4976021;28;20113;-54
2023/05/21 05:40:04;;;;;;;14.77;13.02;;;16.40;99.90;;;;;;4974804;28;20026;-51
2023/05/21 05:42:29;;;;;;;17.67;12.75;;;16.40;99.90;;;;;;4975282;28;20042;-53
2023/05/21 05:44:55;;;;;;;16.85;13.40;;;16.50;99.90;;;;;;4975747;28;20400;-50
2023/05/21 05:47:20;;;;;;;18.15;12.48;;;16.50;99.90;;;;;;4975450;28;20039;-52
2023/05/21 05:49:46;;;;;;;17.83;13.18;;;16.50;99.90;;;;;;4975248;28;20022;-53
2023/05/21 05:52:12;;;;;;;18.20;12.77;;;16.60;99.90;;;;;;4974879;28;20086;-52
2023/05/21 05:54:37;;;;;;;15.95;12.93;;;16.60;99.90;;;;;;4975121;28;20043;-49
2023/05/21 05:57:03;;;;;;;19.90;12.68;;;16.60;99.90;;;;;;4975077;28;20031;-51
2023/05/21 05:59:28;;;;;;;18.52;13.63;;;16.60;99.90;;;;;;4974813;28;20067;-49
2023/05/21 06:01:54;;;;;;;19.98;12.55;;;16.70;99.90;;;;;;4974498;28;20046;-53
2023/05/21 06:04:19;;;;;;;15.25;12.35;;;16.80;99.90;;;;;;4974515;28;20034;-54
2023/05/21 06:06:46;;;;;;;17.20;12.57;;;16.80;99.90;;;;;;4974587;28;20026;-50
2023/05/21 06:09:11;;;;;;;17.27;12.27;;;16.90;99.90;;;;;;4973370;28;20026;-54
2023/05/21 06:11:37;;;;;;;14.63;13.13;;;17.10;99.90;;;;;;4973122;28;20023;-48
2023/05/21 06:14:03;;;;;;;16.73;12.77;;;17.20;99.90;;;;;;4974851;28;20023;-48
2023/05/21 06:16:31;;;;;;;14.30;12.23;;;17.40;99.90;;;;;;4975225;28;20046;-51
2023/05/21 06:18:57;;;;;;;15.68;12.23;;;17.30;99.90;;;;;;4974817;28;20074;-54
2023/05/21 06:21:22;;;;;;;16.95;11.90;;;17.30;99.90;;;;;;4974968;28;20023;-50
2023/05/21 06:23:48;;;;;;;17.17;12.05;;;17.30;99.90;;;;;;4973922;28;20035;-51
2023/05/21 06:26:13;;;;;;;16.98;12.35;;;17.20;99.90;;;;;;4974508;28;20030;-48
2023/05/21 06:28:39;;;;;;;22.08;12.82;;;17.30;99.90;;;;;;4974449;28;20447;-52
2023/05/21 06:31:04;;;;;;;17.98;14.20;;;17.20;99.90;;;;;;4974533;28;20022;-50
2023/05/21 06:33:30;;;;;;;15.07;11.75;;;17.10;99.90;;;;;;4974306;28;20031;-52
2023/05/21 06:35:56;;;;;;;19.27;11.65;;;17.10;99.90;;;;;;4974780;28;20030;-52
2023/05/21 06:38:21;;;;;;;17.92;12.95;;;17.20;99.90;;;;;;4974353;28;20023;-54
2023/05/21 06:40:47;;;;;;;15.70;11.98;;;17.30;99.90;;;;;;4974311;28;20101;-48
2023/05/21 06:43:13;;;;;;;13.45;11.38;;;17.30;99.90;;;;;;4972689;28;20033;-51
2023/05/21 06:45:38;;;;;;;14.57;11.75;;;17.40;99.90;;;;;;4972951;28;20086;-48
2023/05/21 06:48:04;;;;;;;18.17;12.93;;;17.50;99.90;;;;;;4974559;28;20061;-48
2023/05/21 06:50:30;;;;;;;12.93;11.50;;;17.70;99.90;;;;;;4974016;28;20029;-51
2023/05/21 06:52:55;;;;;;;13.25;11.55;;;17.80;99.90;;;;;;4974075;28;20030;-50
2023/05/21 06:55:21;;;;;;;13.73;11.52;;;18.00;99.90;;;;;;4974387;28;20035;-49
2023/05/21 06:57:47;;;;;;;15.40;12.10;;;18.10;99.90;;;;;;4973720;28;20022;-51
2023/05/21 07:00:12;;;;;;;16.15;11.70;;;18.30;99.90;;;;;;4972919;28;20498;-53
2023/05/21 07:02:38;;;;;;;16.73;11.27;;;18.40;99.90;;;;;;4974385;28;20034;-52
2023/05/21 07:05:04;;;;;;;14.88;11.68;;;18.40;99.90;;;;;;4975006;28;20039;-48
2023/05/21 07:07:29;;;;;;;13.82;11.35;;;18.60;99.90;;;;;;4975421;28;20026;-48
2023/05/21 07:09:55;;;;;;;14.48;11.18;;;18.50;99.90;;;;;;4974995;28;20074;-53
2023/05/21 07:12:20;;;;;;;16.70;11.52;;;18.60;99.90;;;;;;4975072;28;20035;-53
2023/05/21 07:14:46;;;;;;;15.07;11.88;;;18.80;99.90;;;;;;4975831;28;20027;-50
2023/05/21 07:17:11;;;;;;;17.65;11.65;;;18.90;99.90;;;;;;4975608;28;20027;-52
2023/05/21 07:19:37;;;;;;;16.25;11.38;;;19.00;99.90;;;;;;4976301;28;20086;-52
2023/05/21 07:22:03;;;;;;;17.90;11.52;;;19.30;99.90;;;;;;4978116;28;20466;-50
2023/05/21 07:24:29;;;;;;;15.75;10.30;;;19.60;99.90;;;;;;4978196;28;20030;-51
2023/05/21 07:26:55;;;;;;;11.73;10.45;;;20.50;99.90;;;;;;4977961;28;20117;-51
2023/05/21 07:29:20;;;;;;;13.60;10.50;;;21.40;99.90;;;;;;4977223;28;20033;-52
2023/05/21 07:31:46;;;;;;;12.80;9.60;;;22.20;99.90;;;;;;4977471;28;20026;-53
2023/05/21 07:34:12;;;;;;;11.70;9.38;;;23.20;99.90;;;;;;4977021;28;20401;-49
2023/05/21 07:36:37;;;;;;;11.60;9.13;;;24.00;99.90;;;;;;4977126;28;20027;-52
2023/05/21 07:39:03;;;;;;;10.98;8.70;;;24.60;99.20;;;;;;4976543;28;20086;-49
2023/05/21 07:41:29;;;;;;;12.23;8.77;;;25.30;97.90;;;;;;4976738;28;20103;-50
2023/05/21 07:43:55;;;;;;;9.70;8.70;;;25.80;97.00;;;;;;4976898;28;20495;-50
2023/05/21 07:46:20;;;;;;;10.73;8.35;;;25.80;96.30;;;;;;4983564;28;20026;-52
2023/05/21 07:48:47;;;;;;;12.75;8.98;;;25.20;97.10;;;;;;4995435;28;20061;-53
2023/05/21 07:51:12;;;;;;;12.70;9.45;;;25.10;96.90;;;;;;4994360;28;20030;-50
2023/05/21 07:53:38;;;;;;;10.45;8.82;;;25.50;96.70;;;;;;4993851;28;20160;-50
2023/05/21 07:56:04;;;;;;;10.05;8.93;;;25.90;96.10;;;;;;4994041;28;20026;-51
2023/05/21 07:58:29;;;;;;;9.35;8.30;;;25.90;96.20;;;;;;4994463;28;20034;-51
2023/05/21 08:00:56;;;;;;;10.55;7.97;;;26.40;95.70;;;;;;4994544;28;20021;-50
2023/05/21 08:03:21;;;;;;;11.05;7.80;;;26.50;95.60;;;;;;4993730;28;20021;-50
2023/05/21 08:05:47;;;;;;;11.25;8.57;;;26.90;94.50;;;;;;4993906;28;20105;-49
2023/05/21 08:08:17;;;;;;;11.25;8.68;;;27.00;94.70;;;;;;4994120;28;20082;-52
2023/05/21 08:10:43;;;;;;;11.00;8.48;;;26.90;94.20;;;;;;4993849;28;20061;-53
2023/05/21 08:13:13;;;;;;;10.27;8.38;;;25.90;95.20;;;;;;4992214;28;20521;-50
2023/05/21 08:15:39;;;;;;;11.57;9.65;;;25.60;95.60;;;;;;4993110;28;20546;-55
2023/05/21 08:18:05;;;;;;;10.35;8.73;;;25.30;95.80;;;;;;4993954;28;20096;-50
2023/05/21 08:20:32;;;;;;;10.57;8.93;;;25.40;96.20;;;;;;4993113;28;20022;-49
2023/05/21 08:22:59;;;;;;;9.95;8.38;;;24.90;96.50;;;;;;4993586;28;20109;-51
2023/05/21 08:25:25;;;;;;;10.52;9.32;;;25.10;96.50;;;;;;4993224;28;20018;-51
2023/05/21 08:27:50;;;;;;;11.13;9.82;;;24.40;97.60;;;;;;4993618;28;20022;-49
2023/05/21 08:30:16;;;;;;;13.95;10.52;;;24.40;97.40;;;;;;4993299;28;20101;-52
2023/05/21 08:32:42;;;;;;;10.48;9.38;;;24.30;97.50;;;;;;4992948;28;20026;-56
2023/05/21 08:35:08;;;;;;;11.23;9.45;;;24.20;98.10;;;;;;4989026;28;20041;-52
2023/05/21 08:37:33;;;;;;;14.18;9.45;;;23.80;98.40;;;;;;4994182;28;20064;-50
2023/05/21 08:39:59;;;;;;;13.68;9.70;;;23.90;98.70;;;;;;4994362;28;20026;-54
2023/05/21 08:42:44;;;;;;;14.85;9.75;;;24.10;98.30;;;;;;4993012;28;20034;-53
2023/05/21 08:45:15;;;;;;;11.85;9.73;;;23.90;98.70;;;;;;4993802;28;20049;-53
2023/05/21 08:47:45;;;;;;;11.35;9.88;;;24.40;98.80;;;;;;4992615;28;20129;-52
2023/05/21 08:50:15;;;;;;;16.60;10.05;;;24.30;97.90;;;;;;4993627;28;20153;-55
2023/05/21 08:52:41;;;;;;;11.13;9.73;;;24.30;98.30;;;;;;4993838;28;20038;-53
2023/05/21 08:55:07;;;;;;;12.75;10.43;;;24.30;97.90;;;;;;4993623;28;20034;-50
2023/05/21 08:57:34;;;;;;;14.23;10.23;;;24.40;98.40;;;;;;4992685;28;20026;-52
2023/05/21 09:00:00;;;;;;;12.02;10.57;;;24.50;98.00;;;;;;4992598;28;20026;-54
2023/05/21 09:02:26;;;;;;;11.73;10.20;;;24.60;98.10;;;;;;4992715;28;20169;-50
2023/05/21 09:04:56;;;;;;;13.50;10.10;;;24.30;98.50;;;;;;4994020;28;20172;-52
2023/05/21 09:07:24;;;;;;;10.50;9.43;;;23.90;98.60;;;;;;4993733;28;20031;-47
2023/05/21 09:10:02;;;;;;;12.82;9.60;;;24.40;98.60;;;;;;4993068;28;20031;-51
2023/05/21 09:12:28;;;;;;;15.18;9.40;;;24.60;98.70;;;;;;4992485;28;20087;-48
2023/05/21 09:14:55;;;;;;;10.50;9.25;;;24.70;97.90;;;;;;4992727;28;20090;-49
2023/05/21 09:17:21;;;;;;;10.70;9.52;;;24.90;97.90;;;;;;4993048;28;20037;-50
2023/05/21 09:20:15;;;;;;;12.98;9.55;;;24.70;97.70;;;;;;4992592;28;20022;-47
2023/05/21 09:22:45;;;;;;;10.38;8.93;;;24.20;98.40;;;;;;4992676;28;20034;-49
2023/05/21 09:25:12;;;;;;;14.75;9.82;;;24.40;98.50;;;;;;4992172;28;20113;-46
2023/05/21 09:27:38;;;;;;;11.23;10.13;;;24.60;98.10;;;;;;4992671;28;20546;-52
2023/05/21 09:30:12;;;;;;;18.80;9.82;;;24.90;98.20;;;;;;4992349;28;20068;-49
2023/05/21 09:32:41;;;;;;;10.52;9.50;;;25.10;97.60;;;;;;4991814;28;20081;-55
2023/05/21 09:35:12;;;;;;;13.02;9.98;;;25.10;97.60;;;;;;4992501;28;20030;-49
2023/05/21 09:37:42;;;;;;;15.32;9.95;;;25.00;97.90;;;;;;4992400;28;20026;-52
2023/05/21 09:40:17;;;;;;;11.70;10.45;;;24.90;97.90;;;;;;4991762;28;20018;-53
2023/05/21 09:42:52;;;;;;;13.52;9.43;;;24.80;98.30;;;;;;4991929;28;20506;-52
2023/05/21 09:45:19;;;;;;;12.20;9.50;;;24.80;98.20;;;;;;4992244;28;20109;-51
2023/05/21 09:47:46;;;;;;;12.40;10.10;;;24.70;97.80;;;;;;4992528;28;20148;-50
2023/05/21 09:50:30;;;;;;;13.18;10.32;;;24.50;98.00;;;;;;4990439;28;20030;-50
2023/05/21 09:52:57;;;;;;;11.88;9.50;;;24.50;98.70;;;;;;4992439;28;20033;-50
2023/05/21 09:55:24;;;;;;;11.95;10.40;;;24.60;98.60;;;;;;4991696;28;20030;-51
2023/05/21 09:57:50;;;;;;;11.30;9.15;;;24.70;98.40;;;;;;4992569;28;20402;-48
2023/05/21 10:00:21;;;;;;;10.75;9.25;;;24.70;98.80;;;;;;4991616;28;20023;-51
2023/05/21 10:02:48;;;;;;;10.68;9.65;;;24.80;97.50;;;;;;4986795;28;20094;-47
2023/05/21 10:05:15;;;;;;;10.48;9.35;;;24.90;98.10;;;;;;4991931;28;20034;-50
2023/05/21 10:07:47;;;;;;;11.10;9.70;;;25.00;98.10;;;;;;4991683;28;20089;-56
2023/05/21 10:10:13;;;;;;;11.55;9.43;;;25.00;98.20;;;;;;4992023;28;20043;-50
2023/05/21 10:12:43;;;;;;;9.73;8.68;;;24.80;97.90;;;;;;4983917;28;20018;-49
2023/05/21 10:15:14;;;;;;;22.77;19.13;;;24.70;98.20;;;;;;4992200;28;20037;-50
2023/05/21 10:17:40;;;;;;;14.45;11.05;;;24.60;97.90;;;;;;4992045;28;20018;-54
2023/05/21 10:20:09;;;;;;;11.75;9.57;;;24.60;98.40;;;;;;4988831;28;20046;-55
2023/05/21 10:22:36;;;;;;;11.95;9.80;;;24.40;98.30;;;;;;4990201;28;20097;-52
2023/05/21 10:25:02;;;;;;;11.10;9.85;;;24.50;98.60;;;;;;4986914;28;20072;-53
2023/05/21 10:27:29;;;;;;;12.98;9.75;;;24.30;98.40;;;;;;4991019;28;20041;-56
2023/05/21 10:29:58;;;;;;;12.00;9.68;;;24.40;98.50;;;;;;4988957;28;20084;-49
2023/05/21 10:32:26;;;;;;;10.77;9.68;;;24.40;98.30;;;;;;4989190;28;20251;-49
2023/05/21 10:34:52;;;;;;;9.55;8.65;;;24.60;98.80;;;;;;4990845;28;20022;-49
2023/05/21 10:37:21;;;;;;;10.60;8.27;;;24.80;98.90;;;;;;4991661;28;20027;-50
2023/05/21 10:39:49;;;;;;;10.40;9.30;;;25.00;97.10;;;;;;4991843;28;20093;-47
2023/05/21 10:42:29;;;;;;;12.85;9.48;;;25.00;97.70;;;;;;4991660;28;20026;-51
2023/05/21 10:45:32;;;;;;;11.15;8.40;;;24.70;97.70;;;;;;4991645;28;20027;-51
2023/05/21 10:48:16;;;;;;;11.98;9.02;;;24.70;97.70;;;;;;4991044;28;20030;-49
2023/05/21 10:51:19;;;;;;;9.35;8.40;;;24.80;96.80;;;;;;4991331;28;20513;-49
2023/05/21 10:53:57;;;;;;;20.77;10.15;;;24.80;97.00;;;;;;4991444;28;20114;-52
2023/05/21 10:56:45;;;;;;;8.88;7.88;;;24.60;96.70;;;;;;4995303;28;20118;-49
2023/05/21 10:59:28;;;;;;;8.48;7.65;;;24.60;96.50;;;;;;4995112;28;20049;-51
2023/05/21 11:01:55;;;;;;;9.18;7.97;;;24.60;96.70;;;;;;4995308;28;20093;-46
2023/05/21 11:04:24;;;;;;;10.60;8.10;;;24.50;96.60;;;;;;4995233;28;20128;-50
2023/05/21 11:06:50;;;;;;;8.82;7.75;;;24.50;96.10;;;;;;4995564;28;20596;-49
2023/05/21 11:09:16;;;;;;;10.60;7.90;;;24.40;96.50;;;;;;4994513;28;20034;-52
2023/05/21 11:11:47;;;;;;;8.75;7.85;;;24.50;96.50;;;;;;4994905;28;20026;-54
2023/05/21 11:14:34;;;;;;;10.05;8.75;;;24.60;97.70;;;;;;4989951;28;20034;-52
2023/05/21 11:17:09;;;;;;;10.15;8.48;;;24.60;97.80;;;;;;4997445;28;20402;-53
2023/05/21 11:19:42;;;;;;;9.73;8.32;;;24.80;98.10;;;;;;4992284;28;20447;-54
2023/05/21 11:22:25;;;;;;;8.32;7.55;;;24.80;96.50;;;;;;4995144;28;20034;-49
2023/05/21 11:24:52;;;;;;;35.88;26.30;;;24.90;95.50;;;;;;4993117;28;20026;-49
2023/05/21 11:27:34;;;;;;;10.95;9.65;;;24.90;97.50;;;;;;4996460;28;20030;-48
2023/05/21 11:30:13;;;;;;;7.70;6.90;;;25.00;97.20;;;;;;4995563;28;20482;-51
2023/05/21 11:33:00;;;;;;;8.80;7.10;;;24.90;95.40;;;;;;4997434;28;20034;-53
2023/05/21 11:35:26;;;;;;;8.27;6.55;;;24.90;95.10;;;;;;4999839;28;20391;-54
2023/05/21 11:37:53;;;;;;;8.13;7.32;;;24.80;94.90;;;;;;5000584;28;20022;-52
2023/05/21 11:40:24;;;;;;;8.20;7.32;;;24.60;95.00;;;;;;4997061;28;20101;-50
2023/05/21 11:42:52;;;;;;;8.27;7.55;;;24.70;95.40;;;;;;4996163;28;20084;-47
2023/05/21 11:45:19;;;;;;;8.35;7.55;;;24.70;94.90;;;;;;4991922;28;20094;-53
2023/05/21 11:47:46;;;;;;;8.63;7.75;;;24.70;95.10;;;;;;4981316;28;20038;-48
2023/05/21 11:50:13;;;;;;;8.65;7.78;;;24.60;95.00;;;;;;4983404;28;20027;-51
2023/05/21 11:52:40;;;;;;;9.13;7.57;;;24.70;95.20;;;;;;4982989;28;20027;-54
2023/05/21 11:55:07;;;;;;;11.80;7.65;;;24.80;95.50;;;;;;4999854;23;20043;-43
2023/05/21 11:57:32;;;;;;;9.63;7.28;;;24.80;95.20;;;;;;4975719;28;20026;-43
2023/05/21 12:00:00;;;;;;;9.02;8.13;;;24.80;95.10;;;;;;4976890;28;20022;-40
2023/05/21 12:02:30;;;;;;;8.68;7.80;;;24.90;94.90;;;;;;4975342;28;20089;-45
2023/05/21 12:05:01;;;;;;;10.07;6.88;;;25.00;94.80;;;;;;4963812;28;20031;-45
2023/05/21 12:07:30;;;;;;;11.40;8.50;;;25.00;95.20;;;;;;4955755;28;20407;-45
2023/05/21 12:09:56;;;;;;;8.63;7.28;;;24.90;95.00;;;;;;4956812;28;20031;-46
2023/05/21 12:12:24;;;;;;;29.58;20.42;;;25.00;95.10;;;;;;4956463;28;20579;-46
2023/05/21 12:14:51;;;;;;;8.98;8.07;;;25.10;95.10;;;;;;4955221;28;20027;-48
2023/05/21 12:17:25;;;;;;;8.70;7.35;;;25.00;94.40;;;;;;4955039;28;20034;-44
2023/05/21 12:19:52;;;;;;;12.68;7.97;;;25.10;94.70;;;;;;4954911;28;20399;-44
2023/05/21 12:22:18;;;;;;;8.88;7.97;;;25.20;95.10;;;;;;4954736;28;20023;-45
2023/05/21 12:24:45;;;;;;;8.65;7.38;;;25.20;94.70;;;;;;4953303;28;20522;-43
2023/05/21 12:27:12;;;;;;;16.60;7.55;;;25.40;94.60;;;;;;4954640;28;20027;-44
2023/05/21 12:29:42;;;;;;;9.70;7.65;;;25.40;94.80;;;;;;4953347;28;20162;-43
2023/05/21 12:32:09;;;;;;;8.82;7.93;;;25.50;95.10;;;;;;4954366;28;20508;-48
2023/05/21 12:34:46;;;;;;;7.82;7.03;;;25.50;95.20;;;;;;4946647;28;20404;-45